sensor_id;sensor_type;location;lat;lon;timestamp;pressure;altitude;pressure_sealevel;temperature;humidity
75425;BME280;64007;50.632;13.700;2023-03-31T00:02:00;97334.31;;;8.50;100.00
75425;BME280;64007;50.632;13.700;2023-03-31T00:04:27;97329.97;;;8.49;100.00
75425;BME280;64007;50.632;13.700;2023-03-31T00:06:53;97320.59;;;8.45;100.00
75425;BME280;64007;50.632;13.700;2023-03-31T00:09:19;97320.38;;;8.37;100.00
75425;BME280;64007;50.632;13.700;2023-03-31T00:11:50;97321.84;;;8.41;100.00
75425;BME280;64007;50.632;13.700;2023-03-31T00:14:17;97317.97;;;8.34;100.00
75425;BME280;64007;50.632;13.700;2023-03-31T00:16:44;97318.91;;;8.33;100.00
75425;BME280;64007;50.632;13.700;2023-03-31T00:19:11;97304.75;;;8.34;100.00
75425;BME280;64007;50.632;13.700;2023-03-31T00:21:47;97298.19;;;8.49;100.00
75425;BME280;64007;50.632;13.700;2023-03-31T00:24:14;97289.25;;;8.50;100.00
75425;BME280;64007;50.632;13.700;2023-03-31T00:26:40;97296.97;;;8.53;100.00
75425;BME280;64007;50.632;13.700;2023-03-31T00:29:08;97291.06;;;8.50;100.00
75425;BME280;64007;50.632;13.700;2023-03-31T00:31:34;97290.38;;;8.47;100.00
75425;BME280;64007;50.632;13.700;2023-03-31T00:34:00;97289.19;;;8.40;100.00
75425;BME280;64007;50.632;13.700;2023-03-31T00:36:26;97286.19;;;8.34;100.00
75425;BME280;64007;50.632;13.700;2023-03-31T00:39:00;97294.47;;;8.40;100.00
75425;BME280;64007;50.632;13.700;2023-03-31T00:41:29;97284.81;;;8.18;100.00
75425;BME280;64007;50.632;13.700;2023-03-31T00:44:06;97285.72;;;8.29;100.00
75425;BME280;64007;50.632;13.700;2023-03-31T00:46:41;97272.34;;;8.09;100.00
75425;BME280;64007;50.632;13.700;2023-03-31T00:49:16;97254.25;;;8.14;100.00
75425;BME280;64007;50.632;13.700;2023-03-31T00:51:47;97258.41;;;7.96;100.00
75425;BME280;64007;50.632;13.700;2023-03-31T00:54:14;97263.53;;;7.77;100.00
75425;BME280;64007;50.632;13.700;2023-03-31T00:56:42;97253.72;;;7.68;100.00
75425;BME280;64007;50.632;13.700;2023-03-31T00:59:13;97248.66;;;7.65;100.00
75425;BME280;64007;50.632;13.700;2023-03-31T01:01:41;97252.53;;;7.49;100.00
75425;BME280;64007;50.632;13.700;2023-03-31T01:04:10;97247.03;;;7.41;100.00
75425;BME280;64007;50.632;13.700;2023-03-31T01:06:43;97240.81;;;7.31;100.00
75425;BME280;64007;50.632;13.700;2023-03-31T01:09:12;97231.09;;;7.20;100.00
75425;BME280;64007;50.632;13.700;2023-03-31T01:11:43;97228.91;;;7.14;100.00
75425;BME280;64007;50.632;13.700;2023-03-31T01:14:11;97229.03;;;7.02;100.00
75425;BME280;64007;50.632;13.700;2023-03-31T01:16:36;97224.75;;;6.89;100.00
75425;BME280;64007;50.632;13.700;2023-03-31T01:19:09;97209.81;;;6.77;100.00
75425;BME280;64007;50.632;13.700;2023-03-31T01:22:00;97212.34;;;6.79;100.00
75425;BME280;64007;50.632;13.700;2023-03-31T01:36:27;97198.75;;;6.27;100.00
75425;BME280;64007;50.632;13.700;2023-03-31T01:44:45;97199.84;;;5.90;100.00
75425;BME280;64007;50.632;13.700;2023-03-31T01:47:26;97196.41;;;6.01;100.00
75425;BME280;64007;50.632;13.700;2023-03-31T01:50:01;97200.56;;;5.92;100.00
75425;BME280;64007;50.632;13.700;2023-03-31T01:55:11;97192.19;;;5.63;100.00
75425;BME280;64007;50.632;13.700;2023-03-31T01:57:52;97187.22;;;5.58;100.00
75425;BME280;64007;50.632;13.700;2023-03-31T02:00:23;97186.00;;;5.51;100.00
75425;BME280;64007;50.632;13.700;2023-03-31T02:02:58;97191.72;;;5.45;100.00
75425;BME280;64007;50.632;13.700;2023-03-31T02:05:40;97174.91;;;5.35;100.00
75425;BME280;64007;50.632;13.700;2023-03-31T02:08:13;97181.19;;;5.45;100.00
75425;BME280;64007;50.632;13.700;2023-03-31T02:10:41;97165.13;;;5.48;100.00
75425;BME280;64007;50.632;13.700;2023-03-31T02:13:10;97169.63;;;5.35;100.00
75425;BME280;64007;50.632;13.700;2023-03-31T02:15:41;97162.50;;;5.24;100.00
75425;BME280;64007;50.632;13.700;2023-03-31T02:18:10;97168.00;;;5.21;100.00
75425;BME280;64007;50.632;13.700;2023-03-31T02:20:39;97169.03;;;5.19;100.00
75425;BME280;64007;50.632;13.700;2023-03-31T02:23:09;97163.03;;;5.17;100.00
75425;BME280;64007;50.632;13.700;2023-03-31T02:25:48;97160.41;;;5.17;100.00
75425;BME280;64007;50.632;13.700;2023-03-31T02:28:20;97152.63;;;5.15;100.00
75425;BME280;64007;50.632;13.700;2023-03-31T02:31:07;97153.69;;;5.13;100.00
75425;BME280;64007;50.632;13.700;2023-03-31T02:33:36;97155.59;;;5.11;100.00
75425;BME280;64007;50.632;13.700;2023-03-31T02:36:02;97149.72;;;5.07;100.00
75425;BME280;64007;50.632;13.700;2023-03-31T02:38:31;97155.31;;;5.02;100.00
75425;BME280;64007;50.632;13.700;2023-03-31T02:41:00;97147.78;;;5.22;100.00
75425;BME280;64007;50.632;13.700;2023-03-31T02:43:26;97148.47;;;5.00;100.00
75425;BME280;64007;50.632;13.700;2023-03-31T02:45:51;97144.28;;;4.97;100.00
75425;BME280;64007;50.632;13.700;2023-03-31T02:48:21;97139.44;;;4.91;100.00
75425;BME280;64007;50.632;13.700;2023-03-31T02:53:46;97127.69;;;4.84;100.00
75425;BME280;64007;50.632;13.700;2023-03-31T03:01:54;97124.59;;;4.90;100.00
75425;BME280;64007;50.632;13.700;2023-03-31T03:04:45;97126.00;;;4.83;100.00
75425;BME280;64007;50.632;13.700;2023-03-31T03:07:32;97123.56;;;4.80;100.00
75425;BME280;64007;50.632;13.700;2023-03-31T03:12:48;97119.25;;;4.79;100.00
75425;BME280;64007;50.632;13.700;2023-03-31T03:15:29;97113.03;;;4.80;100.00
75425;BME280;64007;50.632;13.700;2023-03-31T03:17:56;97106.50;;;4.86;100.00
75425;BME280;64007;50.632;13.700;2023-03-31T03:20:23;97102.56;;;4.91;100.00
75425;BME280;64007;50.632;13.700;2023-03-31T03:22:48;97104.03;;;4.95;100.00
75425;BME280;64007;50.632;13.700;2023-03-31T03:25:14;97093.03;;;5.01;100.00
75425;BME280;64007;50.632;13.700;2023-03-31T03:27:45;97089.22;;;5.06;100.00
75425;BME280;64007;50.632;13.700;2023-03-31T03:30:12;97092.25;;;5.12;100.00
75425;BME280;64007;50.632;13.700;2023-03-31T03:32:38;97108.06;;;5.12;100.00
75425;BME280;64007;50.632;13.700;2023-03-31T03:35:05;97109.00;;;5.11;100.00
75425;BME280;64007;50.632;13.700;2023-03-31T03:37:31;97097.00;;;5.07;100.00
75425;BME280;64007;50.632;13.700;2023-03-31T03:39:57;97097.00;;;5.07;100.00
75425;BME280;64007;50.632;13.700;2023-03-31T03:42:23;97099.75;;;5.06;100.00
75425;BME280;64007;50.632;13.700;2023-03-31T03:44:49;97093.66;;;5.05;100.00
75425;BME280;64007;50.632;13.700;2023-03-31T03:47:14;97094.72;;;5.02;100.00
75425;BME280;64007;50.632;13.700;2023-03-31T03:49:40;97094.00;;;5.00;100.00
75425;BME280;64007;50.632;13.700;2023-03-31T03:52:06;97086.09;;;5.00;100.00
75425;BME280;64007;50.632;13.700;2023-03-31T03:54:32;97079.13;;;4.99;100.00
75425;BME280;64007;50.632;13.700;2023-03-31T03:56:58;97078.91;;;5.02;100.00
75425;BME280;64007;50.632;13.700;2023-03-31T03:59:24;97078.91;;;5.02;100.00
75425;BME280;64007;50.632;13.700;2023-03-31T04:01:50;97072.91;;;5.00;100.00
75425;BME280;64007;50.632;13.700;2023-03-31T04:04:18;97066.91;;;4.98;100.00
75425;BME280;64007;50.632;13.700;2023-03-31T04:06:44;97072.19;;;4.98;100.00
75425;BME280;64007;50.632;13.700;2023-03-31T04:09:10;97068.81;;;4.96;100.00
75425;BME280;64007;50.632;13.700;2023-03-31T04:11:35;97057.19;;;4.88;100.00
75425;BME280;64007;50.632;13.700;2023-03-31T04:14:01;97062.66;;;4.85;100.00
75425;BME280;64007;50.632;13.700;2023-03-31T04:16:27;97053.94;;;4.84;100.00
75425;BME280;64007;50.632;13.700;2023-03-31T04:18:53;97049.72;;;4.82;100.00
75425;BME280;64007;50.632;13.700;2023-03-31T04:21:23;97050.22;;;4.87;100.00
75425;BME280;64007;50.632;13.700;2023-03-31T04:23:51;97056.88;;;4.80;100.00
75425;BME280;64007;50.632;13.700;2023-03-31T04:26:24;97036.03;;;4.77;100.00
75425;BME280;64007;50.632;13.700;2023-03-31T04:28:56;97033.75;;;4.72;100.00
75425;BME280;64007;50.632;13.700;2023-03-31T04:31:25;97030.38;;;4.70;100.00
75425;BME280;64007;50.632;13.700;2023-03-31T04:33:52;97023.44;;;4.69;100.00
75425;BME280;64007;50.632;13.700;2023-03-31T04:36:18;97015.53;;;4.69;100.00
75425;BME280;64007;50.632;13.700;2023-03-31T04:38:46;97015.41;;;4.70;100.00
75425;BME280;64007;50.632;13.700;2023-03-31T04:41:13;97005.28;;;4.77;100.00
75425;BME280;64007;50.632;13.700;2023-03-31T04:43:39;97010.94;;;4.84;100.00
75425;BME280;64007;50.632;13.700;2023-03-31T04:46:04;97005.47;;;4.87;100.00
75425;BME280;64007;50.632;13.700;2023-03-31T04:48:30;97006.69;;;4.94;100.00
75425;BME280;64007;50.632;13.700;2023-03-31T04:50:56;97003.47;;;5.01;100.00
75425;BME280;64007;50.632;13.700;2023-03-31T04:53:22;97004.91;;;5.06;100.00
75425;BME280;64007;50.632;13.700;2023-03-31T04:55:49;96999.19;;;5.12;100.00
75425;BME280;64007;50.632;13.700;2023-03-31T04:58:15;97000.19;;;5.22;100.00
75425;BME280;64007;50.632;13.700;2023-03-31T05:00:41;96994.91;;;5.22;100.00
75425;BME280;64007;50.632;13.700;2023-03-31T05:03:07;96988.47;;;5.26;100.00
75425;BME280;64007;50.632;13.700;2023-03-31T05:05:33;96986.44;;;5.29;100.00
75425;BME280;64007;50.632;13.700;2023-03-31T05:07:59;96984.50;;;5.31;100.00
75425;BME280;64007;50.632;13.700;2023-03-31T05:10:25;96976.50;;;5.33;100.00
75425;BME280;64007;50.632;13.700;2023-03-31T05:12:50;96973.63;;;5.36;100.00
75425;BME280;64007;50.632;13.700;2023-03-31T05:15:16;96973.13;;;5.42;100.00
75425;BME280;64007;50.632;13.700;2023-03-31T05:17:42;96970.25;;;5.45;100.00
75425;BME280;64007;50.632;13.700;2023-03-31T05:20:08;96963.06;;;5.47;100.00
75425;BME280;64007;50.632;13.700;2023-03-31T05:22:37;96963.56;;;5.52;100.00
75425;BME280;64007;50.632;13.700;2023-03-31T05:25:06;96956.38;;;5.54;100.00
75425;BME280;64007;50.632;13.700;2023-03-31T05:27:33;96955.03;;;5.60;100.00
75425;BME280;64007;50.632;13.700;2023-03-31T05:30:00;96946.56;;;5.68;100.00
75425;BME280;64007;50.632;13.700;2023-03-31T05:32:27;96952.06;;;5.76;100.00
75425;BME280;64007;50.632;13.700;2023-03-31T05:34:53;96951.34;;;5.85;100.00
75425;BME280;64007;50.632;13.700;2023-03-31T05:37:23;96947.03;;;5.95;100.00
75425;BME280;64007;50.632;13.700;2023-03-31T05:39:49;96927.75;;;6.06;100.00
75425;BME280;64007;50.632;13.700;2023-03-31T05:42:15;96924.22;;;6.16;100.00
75425;BME280;64007;50.632;13.700;2023-03-31T05:44:40;96925.41;;;6.23;100.00
75425;BME280;64007;50.632;13.700;2023-03-31T05:47:06;96912.56;;;6.30;100.00
75425;BME280;64007;50.632;13.700;2023-03-31T05:49:32;96915.78;;;6.34;100.00
75425;BME280;64007;50.632;13.700;2023-03-31T05:51:58;96906.50;;;6.39;100.00
75425;BME280;64007;50.632;13.700;2023-03-31T05:54:23;96895.72;;;6.42;100.00
75425;BME280;64007;50.632;13.700;2023-03-31T05:56:49;96883.81;;;6.48;100.00
75425;BME280;64007;50.632;13.700;2023-03-31T05:59:15;96879.72;;;6.55;100.00
75425;BME280;64007;50.632;13.700;2023-03-31T06:01:41;96887.00;;;6.63;100.00
75425;BME280;64007;50.632;13.700;2023-03-31T06:04:06;96889.69;;;6.72;100.00
75425;BME280;64007;50.632;13.700;2023-03-31T06:06:32;96880.91;;;6.83;100.00
75425;BME280;64007;50.632;13.700;2023-03-31T06:08:59;96876.91;;;6.88;100.00
75425;BME280;64007;50.632;13.700;2023-03-31T06:11:25;96877.09;;;6.97;100.00
75425;BME280;64007;50.632;13.700;2023-03-31T06:13:51;96874.63;;;7.05;100.00
75425;BME280;64007;50.632;13.700;2023-03-31T06:16:17;96880.94;;;7.13;100.00
75425;BME280;64007;50.632;13.700;2023-03-31T06:18:43;96884.44;;;7.44;100.00
75425;BME280;64007;50.632;13.700;2023-03-31T06:21:12;96886.91;;;7.36;100.00
75425;BME280;64007;50.632;13.700;2023-03-31T06:23:38;96873.13;;;7.33;100.00
75425;BME280;64007;50.632;13.700;2023-03-31T06:26:06;96881.06;;;7.33;100.00
75425;BME280;64007;50.632;13.700;2023-03-31T06:28:35;96873.16;;;7.42;100.00
75425;BME280;64007;50.632;13.700;2023-03-31T06:31:22;96870.94;;;7.47;100.00
75425;BME280;64007;50.632;13.700;2023-03-31T06:33:48;96869.31;;;7.56;100.00
75425;BME280;64007;50.632;13.700;2023-03-31T06:36:16;96866.31;;;7.70;100.00
75425;BME280;64007;50.632;13.700;2023-03-31T06:38:44;96864.97;;;7.95;100.00
75425;BME280;64007;50.632;13.700;2023-03-31T06:41:11;96854.44;;;8.14;100.00
75425;BME280;64007;50.632;13.700;2023-03-31T06:43:37;96848.34;;;8.33;100.00
75425;BME280;64007;50.632;13.700;2023-03-31T06:46:04;96843.31;;;8.40;100.00
75425;BME280;64007;50.632;13.700;2023-03-31T06:48:30;96851.72;;;8.45;100.00
75425;BME280;64007;50.632;13.700;2023-03-31T06:50:59;96848.91;;;8.56;100.00
75425;BME280;64007;50.632;13.700;2023-03-31T06:53:25;96848.06;;;8.85;100.00
75425;BME280;64007;50.632;13.700;2023-03-31T06:55:51;96851.41;;;8.87;100.00
75425;BME280;64007;50.632;13.700;2023-03-31T06:58:17;96848.31;;;9.01;100.00
75425;BME280;64007;50.632;13.700;2023-03-31T07:00:43;96847.72;;;9.07;100.00
75425;BME280;64007;50.632;13.700;2023-03-31T07:03:11;96846.03;;;9.25;100.00
75425;BME280;64007;50.632;13.700;2023-03-31T07:05:37;96837.47;;;9.31;100.00
75425;BME280;64007;50.632;13.700;2023-03-31T07:08:03;96840.44;;;9.28;100.00
75425;BME280;64007;50.632;13.700;2023-03-31T07:10:31;96845.44;;;9.31;100.00
75425;BME280;64007;50.632;13.700;2023-03-31T07:12:57;96835.50;;;9.33;100.00
75425;BME280;64007;50.632;13.700;2023-03-31T07:15:24;96827.56;;;9.33;100.00
75425;BME280;64007;50.632;13.700;2023-03-31T07:17:50;96811.97;;;9.21;100.00
75425;BME280;64007;50.632;13.700;2023-03-31T07:20:18;96812.22;;;9.27;100.00
75425;BME280;64007;50.632;13.700;2023-03-31T07:22:46;96813.50;;;9.23;100.00
75425;BME280;64007;50.632;13.700;2023-03-31T07:25:14;96817.94;;;9.32;100.00
75425;BME280;64007;50.632;13.700;2023-03-31T07:27:40;96817.19;;;9.40;100.00
75425;BME280;64007;50.632;13.700;2023-03-31T07:30:12;96812.69;;;9.50;100.00
75425;BME280;64007;50.632;13.700;2023-03-31T07:32:38;96805.91;;;9.65;100.00
75425;BME280;64007;50.632;13.700;2023-03-31T07:35:07;96800.78;;;9.82;100.00
75425;BME280;64007;50.632;13.700;2023-03-31T07:37:38;96791.84;;;9.83;100.00
75425;BME280;64007;50.632;13.700;2023-03-31T07:40:06;96788.72;;;9.87;100.00
75425;BME280;64007;50.632;13.700;2023-03-31T07:42:33;96788.31;;;10.10;100.00
75425;BME280;64007;50.632;13.700;2023-03-31T07:44:59;96789.81;;;10.12;100.00
75425;BME280;64007;50.632;13.700;2023-03-31T07:47:25;96784.84;;;10.27;100.00
75425;BME280;64007;50.632;13.700;2023-03-31T07:49:51;96787.25;;;10.38;100.00
75425;BME280;64007;50.632;13.700;2023-03-31T07:52:16;96780.22;;;10.47;100.00
75425;BME280;64007;50.632;13.700;2023-03-31T07:54:47;96780.97;;;10.57;100.00
75425;BME280;64007;50.632;13.700;2023-03-31T07:57:12;96773.44;;;10.52;100.00
75425;BME280;64007;50.632;13.700;2023-03-31T07:59:39;96775.91;;;10.72;100.00
75425;BME280;64007;50.632;13.700;2023-03-31T08:02:04;96780.84;;;10.84;100.00
75425;BME280;64007;50.632;13.700;2023-03-31T08:04:30;96788.38;;;10.71;100.00
75425;BME280;64007;50.632;13.700;2023-03-31T08:06:56;96786.19;;;10.66;100.00
75425;BME280;64007;50.632;13.700;2023-03-31T08:09:22;96777.84;;;10.61;100.00
75425;BME280;64007;50.632;13.700;2023-03-31T08:11:48;96783.63;;;10.57;100.00
75425;BME280;64007;50.632;13.700;2023-03-31T08:14:15;96777.00;;;10.61;100.00
75425;BME280;64007;50.632;13.700;2023-03-31T08:16:40;96777.09;;;10.51;100.00
75425;BME280;64007;50.632;13.700;2023-03-31T08:19:06;96780.88;;;10.31;100.00
75425;BME280;64007;50.632;13.700;2023-03-31T08:21:32;96768.13;;;10.17;100.00
75425;BME280;64007;50.632;13.700;2023-03-31T08:23:58;96773.34;;;10.09;100.00
75425;BME280;64007;50.632;13.700;2023-03-31T08:26:24;96767.91;;;10.10;100.00
75425;BME280;64007;50.632;13.700;2023-03-31T08:28:50;96765.41;;;10.09;100.00
75425;BME280;64007;50.632;13.700;2023-03-31T08:31:18;96762.06;;;10.07;100.00
75425;BME280;64007;50.632;13.700;2023-03-31T08:33:45;96756.38;;;10.01;100.00
75425;BME280;64007;50.632;13.700;2023-03-31T08:36:12;96749.47;;;10.09;100.00
75425;BME280;64007;50.632;13.700;2023-03-31T08:38:40;96754.47;;;10.12;100.00
75425;BME280;64007;50.632;13.700;2023-03-31T08:43:42;96757.63;;;9.97;100.00
75425;BME280;64007;50.632;13.700;2023-03-31T08:46:11;96745.41;;;9.87;100.00
75425;BME280;64007;50.632;13.700;2023-03-31T08:48:41;96738.44;;;9.86;100.00
75425;BME280;64007;50.632;13.700;2023-03-31T08:51:16;96744.56;;;9.86;100.00
75425;BME280;64007;50.632;13.700;2023-03-31T08:53:58;96745.03;;;9.82;100.00
75425;BME280;64007;50.632;13.700;2023-03-31T08:56:26;96737.16;;;9.72;100.00
75425;BME280;64007;50.632;13.700;2023-03-31T08:58:52;96735.78;;;9.68;100.00
75425;BME280;64007;50.632;13.700;2023-03-31T09:06:37;96723.78;;;9.64;100.00
75425;BME280;64007;50.632;13.700;2023-03-31T09:09:09;96719.31;;;9.64;100.00
75425;BME280;64007;50.632;13.700;2023-03-31T09:11:39;96713.72;;;9.67;100.00
75425;BME280;64007;50.632;13.700;2023-03-31T09:14:25;96705.78;;;9.58;100.00
75425;BME280;64007;50.632;13.700;2023-03-31T09:17:24;96693.84;;;9.71;100.00
75425;BME280;64007;50.632;13.700;2023-03-31T09:19:55;96695.84;;;9.60;100.00
75425;BME280;64007;50.632;13.700;2023-03-31T09:22:29;96689.97;;;9.66;100.00
75425;BME280;64007;50.632;13.700;2023-03-31T09:27:30;96679.03;;;9.51;100.00
75425;BME280;64007;50.632;13.700;2023-03-31T09:30:01;96675.38;;;9.52;100.00
75425;BME280;64007;50.632;13.700;2023-03-31T09:32:30;96667.03;;;9.47;100.00
75425;BME280;64007;50.632;13.700;2023-03-31T09:37:37;96662.88;;;9.45;100.00
75425;BME280;64007;50.632;13.700;2023-03-31T09:40:04;96658.25;;;9.47;100.00
75425;BME280;64007;50.632;13.700;2023-03-31T09:42:33;96655.75;;;9.45;100.00
75425;BME280;64007;50.632;13.700;2023-03-31T09:45:00;96655.09;;;9.61;100.00
75425;BME280;64007;50.632;13.700;2023-03-31T09:47:41;96653.13;;;9.63;100.00
75425;BME280;64007;50.632;13.700;2023-03-31T09:50:08;96647.03;;;9.53;100.00
75425;BME280;64007;50.632;13.700;2023-03-31T09:52:52;96642.03;;;9.50;100.00
75425;BME280;64007;50.632;13.700;2023-03-31T09:55:24;96639.53;;;9.48;100.00
75425;BME280;64007;50.632;13.700;2023-03-31T09:57:51;96636.72;;;9.50;100.00
75425;BME280;64007;50.632;13.700;2023-03-31T10:00:20;96625.81;;;9.53;100.00
75425;BME280;64007;50.632;13.700;2023-03-31T10:02:55;96633.38;;;9.48;100.00
75425;BME280;64007;50.632;13.700;2023-03-31T10:05:29;96629.53;;;9.42;100.00
75425;BME280;64007;50.632;13.700;2023-03-31T10:08:18;96622.56;;;9.41;100.00
75425;BME280;64007;50.632;13.700;2023-03-31T10:10:50;96612.53;;;9.53;100.00
75425;BME280;64007;50.632;13.700;2023-03-31T10:13:25;96604.28;;;9.56;100.00
75425;BME280;64007;50.632;13.700;2023-03-31T10:16:01;96600.03;;;9.45;100.00
75425;BME280;64007;50.632;13.700;2023-03-31T10:18:33;96608.91;;;9.36;100.00
75425;BME280;64007;50.632;13.700;2023-03-31T10:21:03;96604.75;;;9.33;100.00
75425;BME280;64007;50.632;13.700;2023-03-31T10:23:30;96592.16;;;9.35;100.00
75425;BME280;64007;50.632;13.700;2023-03-31T10:25:57;96586.03;;;9.35;100.00
75425;BME280;64007;50.632;13.700;2023-03-31T10:28:24;96588.38;;;9.38;100.00
75425;BME280;64007;50.632;13.700;2023-03-31T10:30:51;96573.97;;;9.40;100.00
75425;BME280;64007;50.632;13.700;2023-03-31T10:33:22;96575.63;;;9.41;100.00
75425;BME280;64007;50.632;13.700;2023-03-31T10:35:58;96573.66;;;9.43;100.00
75425;BME280;64007;50.632;13.700;2023-03-31T10:38:32;96567.06;;;9.48;100.00
75425;BME280;64007;50.632;13.700;2023-03-31T10:40:59;96570.38;;;9.50;100.00
75425;BME280;64007;50.632;13.700;2023-03-31T10:43:39;96573.09;;;9.58;100.00
75425;BME280;64007;50.632;13.700;2023-03-31T10:46:06;96565.44;;;9.55;100.00
75425;BME280;64007;50.632;13.700;2023-03-31T10:48:37;96570.44;;;9.58;100.00
75425;BME280;64007;50.632;13.700;2023-03-31T10:51:21;96561.06;;;9.63;100.00
75425;BME280;64007;50.632;13.700;2023-03-31T10:53:53;96550.16;;;9.66;100.00
75425;BME280;64007;50.632;13.700;2023-03-31T11:05:05;96540.41;;;9.75;100.00
75425;BME280;64007;50.632;13.700;2023-03-31T11:10:22;96532.31;;;9.59;100.00
75425;BME280;64007;50.632;13.700;2023-03-31T11:13:12;96532.56;;;9.48;100.00
75425;BME280;64007;50.632;13.700;2023-03-31T11:26:43;96510.91;;;9.34;100.00
75425;BME280;64007;50.632;13.700;2023-03-31T11:32:04;96494.06;;;9.43;100.00
75425;BME280;64007;50.632;13.700;2023-03-31T11:34:58;96460.25;;;9.46;100.00
75425;BME280;64007;50.632;13.700;2023-03-31T11:37:35;96439.88;;;9.46;100.00
75425;BME280;64007;50.632;13.700;2023-03-31T11:43:01;96450.38;;;9.56;100.00
75425;BME280;64007;50.632;13.700;2023-03-31T11:45:31;96454.44;;;9.68;100.00
75425;BME280;64007;50.632;13.700;2023-03-31T11:48:00;96460.59;;;9.68;100.00
75425;BME280;64007;50.632;13.700;2023-03-31T11:50:32;96453.22;;;9.88;100.00
75425;BME280;64007;50.632;13.700;2023-03-31T11:53:05;96451.13;;;10.00;100.00
75425;BME280;64007;50.632;13.700;2023-03-31T11:55:33;96440.91;;;9.79;100.00
75425;BME280;64007;50.632;13.700;2023-03-31T11:58:15;96434.25;;;9.75;100.00
75425;BME280;64007;50.632;13.700;2023-03-31T12:00:52;96436.31;;;9.89;100.00
75425;BME280;64007;50.632;13.700;2023-03-31T12:05:57;96418.81;;;10.04;100.00
75425;BME280;64007;50.632;13.700;2023-03-31T12:08:38;96419.00;;;10.11;100.00
75425;BME280;64007;50.632;13.700;2023-03-31T12:11:31;96421.88;;;10.26;100.00
75425;BME280;64007;50.632;13.700;2023-03-31T12:16:45;96410.03;;;10.12;100.00
75425;BME280;64007;50.632;13.700;2023-03-31T12:19:18;96407.84;;;10.08;100.00
75425;BME280;64007;50.632;13.700;2023-03-31T12:24:41;96395.50;;;9.90;100.00
75425;BME280;64007;50.632;13.700;2023-03-31T12:29:42;96390.94;;;9.74;100.00
75425;BME280;64007;50.632;13.700;2023-03-31T12:32:32;96386.09;;;9.62;100.00
75425;BME280;64007;50.632;13.700;2023-03-31T12:43:30;96373.25;;;9.57;100.00
75425;BME280;64007;50.632;13.700;2023-03-31T12:49:04;96381.06;;;9.59;100.00
75425;BME280;64007;50.632;13.700;2023-03-31T12:51:49;96377.72;;;9.57;100.00
75425;BME280;64007;50.632;13.700;2023-03-31T12:59:43;96363.91;;;9.71;100.00
75425;BME280;64007;50.632;13.700;2023-03-31T13:04:36;96358.75;;;10.20;100.00
75425;BME280;64007;50.632;13.700;2023-03-31T13:07:04;96353.16;;;10.23;100.00
75425;BME280;64007;50.632;13.700;2023-03-31T13:09:44;96351.50;;;10.30;100.00
75425;BME280;64007;50.632;13.700;2023-03-31T13:12:17;96342.53;;;10.23;100.00
75425;BME280;64007;50.632;13.700;2023-03-31T13:14:46;96346.50;;;10.27;100.00
75425;BME280;64007;50.632;13.700;2023-03-31T13:17:29;96334.72;;;10.21;100.00
75425;BME280;64007;50.632;13.700;2023-03-31T13:20:14;96322.59;;;10.27;100.00
75425;BME280;64007;50.632;13.700;2023-03-31T13:22:44;96323.94;;;10.31;100.00
75425;BME280;64007;50.632;13.700;2023-03-31T13:25:31;96308.66;;;10.33;100.00
75425;BME280;64007;50.632;13.700;2023-03-31T13:28:23;96310.34;;;10.42;100.00
75425;BME280;64007;50.632;13.700;2023-03-31T13:30:56;96289.75;;;10.52;100.00
75425;BME280;64007;50.632;13.700;2023-03-31T13:33:26;96295.56;;;10.56;100.00
75425;BME280;64007;50.632;13.700;2023-03-31T13:39:04;96284.28;;;10.62;100.00
75425;BME280;64007;50.632;13.700;2023-03-31T14:01:34;96272.13;;;11.00;100.00
75425;BME280;64007;50.632;13.700;2023-03-31T14:04:21;96264.44;;;11.21;100.00
75425;BME280;64007;50.632;13.700;2023-03-31T14:06:55;96270.41;;;11.15;100.00
75425;BME280;64007;50.632;13.700;2023-03-31T14:09:35;96275.72;;;11.15;100.00
75425;BME280;64007;50.632;13.700;2023-03-31T14:12:19;96259.94;;;11.22;100.00
75425;BME280;64007;50.632;13.700;2023-03-31T14:14:45;96232.94;;;11.33;100.00
75425;BME280;64007;50.632;13.700;2023-03-31T14:17:10;96238.03;;;11.51;100.00
75425;BME280;64007;50.632;13.700;2023-03-31T14:25:37;96235.44;;;11.35;100.00
75425;BME280;64007;50.632;13.700;2023-03-31T14:31:17;96204.09;;;13.49;100.00
75425;BME280;64007;50.632;13.700;2023-03-31T14:39:24;96193.78;;;16.39;89.24
75425;BME280;64007;50.632;13.700;2023-03-31T14:41:54;96188.88;;;17.02;73.97
75425;BME280;64007;50.632;13.700;2023-03-31T14:44:21;96190.91;;;17.13;75.54
75425;BME280;64007;50.632;13.700;2023-03-31T14:46:47;96179.41;;;16.66;71.70
75425;BME280;64007;50.632;13.700;2023-03-31T14:51:45;96180.03;;;15.68;74.93
75425;BME280;64007;50.632;13.700;2023-03-31T14:54:16;96177.00;;;15.49;77.55
75425;BME280;64007;50.632;13.700;2023-03-31T14:56:47;96175.75;;;15.39;78.45
75425;BME280;64007;50.632;13.700;2023-03-31T14:59:34;96172.38;;;15.64;74.84
75425;BME280;64007;50.632;13.700;2023-03-31T15:02:02;96176.13;;;15.70;74.50
75425;BME280;64007;50.632;13.700;2023-03-31T15:04:30;96175.13;;;15.91;88.25
75425;BME280;64007;50.632;13.700;2023-03-31T15:07:00;96174.59;;;16.15;78.42
75425;BME280;64007;50.632;13.700;2023-03-31T15:09:28;96181.19;;;16.33;78.03
75425;BME280;64007;50.632;13.700;2023-03-31T15:12:03;96172.72;;;16.16;81.98
75425;BME280;64007;50.632;13.700;2023-03-31T15:14:36;96175.19;;;16.11;76.67
75425;BME280;64007;50.632;13.700;2023-03-31T15:17:04;96172.66;;;15.83;75.81
75425;BME280;64007;50.632;13.700;2023-03-31T15:19:33;96172.44;;;15.78;70.66
75425;BME280;64007;50.632;13.700;2023-03-31T15:22:16;96183.84;;;15.17;73.02
75425;BME280;64007;50.632;13.700;2023-03-31T15:24:45;96175.13;;;14.46;62.55
75425;BME280;64007;50.632;13.700;2023-03-31T15:27:16;96182.19;;;14.11;67.35